Time;durP1;ratioP1;P1;durP2;ratioP2;P2;SDS_P1;SDS_P2;PMS_P1;PMS_P2;Temp;Humidity;BMP_temperature;BMP_pressure;BME280_temperature;BME280_humidity;BME280_pressure;Samples;Min_cycle;Max_cycle;Signal;HPM_P1;HPM_P2
2024/04/06 00:01:35;;;;;;;;;;;;;;;12.36;88.59;98485.94;4961029;28;20321;-94
2024/04/06 00:04:01;;;;;;;;;;;;;;;12.32;87.94;98493.94;4981096;28;19929;-93
2024/04/06 00:06:26;;;;;;;;;;;;;;;12.28;88.11;98489.41;4960146;28;20000;-94
2024/04/06 00:08:53;;;;;;;;;;;;;;;12.26;88.15;98484.88;4994630;28;19918;-93
2024/04/06 00:11:19;;;;;;;;;;;;;;;12.15;88.50;98476.66;4990150;28;19961;-95
2024/04/06 00:13:45;;;;;;;;;;;;;;;12.07;88.64;98479.22;5001485;28;19940;-95
2024/04/06 00:16:11;;;;;;;;;;;;;;;12.00;89.65;98482.63;4962837;28;20367;-94
2024/04/06 00:18:39;;;;;;;;;;;;;;;12.04;89.54;98486.28;4984934;28;19930;-94
2024/04/06 00:21:04;;;;;;;;;;;;;;;11.98;89.28;98494.19;4989773;28;19918;-92
2024/04/06 00:23:30;;;;;;;;;;;;;;;11.93;90.22;98493.16;4985180;28;19917;-94
2024/04/06 00:25:56;;;;;;;;;;;;;;;11.90;90.20;98490.44;4983307;28;20021;-93
2024/04/06 00:28:22;;;;;;;;;;;;;;;11.88;90.57;98493.09;5000170;28;19916;-93
2024/04/06 00:30:48;;;;;;;;;;;;;;;11.84;90.37;98483.22;4983239;28;19924;-93
2024/04/06 00:33:13;;;;;;;;;;;;;;;11.90;90.46;98482.44;4982032;28;20000;-93
2024/04/06 00:35:38;;;;;;;;;;;;;;;11.84;90.52;98482.31;4987628;28;19918;-94
2024/04/06 00:38:04;;;;;;;;;;;;;;;11.88;90.55;98482.41;4981593;28;19925;-94
2024/04/06 00:40:29;;;;;;;;;;;;;;;11.88;90.18;98495.78;4977994;28;19918;-92
2024/04/06 00:42:54;;;;;;;;;;;;;;;11.86;90.57;98494.81;4955663;28;19918;-93
2024/04/06 00:45:20;;;;;;;;;;;;;;;11.95;89.56;98503.03;4971081;28;19918;-93
2024/04/06 00:47:46;;;;;;;;;;;;;;;11.99;88.93;98504.91;4969534;28;19922;-92
2024/04/06 00:50:12;;;;;;;;;;;;;;;11.92;89.07;98510.97;4977884;28;20018;-93
2024/04/06 00:52:37;;;;;;;;;;;;;;;11.91;88.88;98505.59;4970556;28;19918;-93
2024/04/06 00:55:03;;;;;;;;;;;;;;;11.89;89.03;98510.03;4975129;28;19929;-93
2024/04/06 00:57:29;;;;;;;;;;;;;;;11.91;88.50;98510.97;4965443;28;19983;-93
2024/04/06 00:59:54;;;;;;;;;;;;;;;11.84;89.21;98506.38;4996347;28;20364;-93
2024/04/06 01:02:20;;;;;;;;;;;;;;;11.79;89.32;98511.59;4997557;28;19922;-93
2024/04/06 01:04:45;;;;;;;;;;;;;;;11.69;89.19;98507.81;4981151;28;19918;-93
2024/04/06 01:07:10;;;;;;;;;;;;;;;11.56;89.25;98503.97;4976876;28;19925;-94
2024/04/06 01:09:36;;;;;;;;;;;;;;;11.52;91.41;98515.47;4985201;28;20019;-93
2024/04/06 01:12:01;;;;;;;;;;;;;;;11.41;90.62;98517.00;4989516;28;19929;-92
2024/04/06 01:14:26;;;;;;;;;;;;;;;11.17;91.76;98511.09;4985370;28;20361;-94
2024/04/06 01:16:52;;;;;;;;;;;;;;;11.15;92.31;98513.72;5005679;28;19917;-93
2024/04/06 01:19:17;;;;;;;;;;;;;;;11.02;92.72;98519.66;4974060;28;19918;-93
2024/04/06 01:21:42;;;;;;;;;;;;;;;10.76;94.33;98521.69;5002831;28;19925;-93
2024/04/06 01:24:26;;;;;;;;;;;;;;;10.46;94.94;98529.81;4995925;28;19910;-93
2024/04/06 01:26:52;;;;;;;;;;;;;;;10.24;97.23;98523.00;4985263;28;19917;-93
2024/04/06 01:29:19;;;;;;;;;;;;;;;10.12;97.52;98523.53;4975781;28;19921;-93
2024/04/06 01:31:44;;;;;;;;;;;;;;;10.00;98.24;98526.75;5005915;28;19922;-95
2024/04/06 01:34:10;;;;;;;;;;;;;;;9.82;99.02;98530.66;5000463;28;19930;-94
2024/04/06 01:36:36;;;;;;;;;;;;;;;9.74;100.00;98523.34;4985260;28;19949;-94
2024/04/06 01:39:02;;;;;;;;;;;;;;;9.54;100.00;98526.31;5009117;28;19929;-94
2024/04/06 01:41:27;;;;;;;;;;;;;;;9.43;99.92;98533.94;5007758;28;19914;-95
2024/04/06 01:43:53;;;;;;;;;;;;;;;9.41;100.00;98531.25;4991600;28;19929;-94
2024/04/06 01:46:19;;;;;;;;;;;;;;;9.25;100.00;98540.53;4980257;28;19936;-92
2024/04/06 01:48:45;;;;;;;;;;;;;;;9.20;100.00;98527.94;4996194;28;19918;-94
2024/04/06 01:51:10;;;;;;;;;;;;;;;9.17;100.00;98534.06;4990275;28;19930;-92
2024/04/06 01:53:35;;;;;;;;;;;;;;;9.09;100.00;98543.53;4980259;28;19914;-92
2024/04/06 01:56:01;;;;;;;;;;;;;;;9.06;100.00;98534.59;4984532;28;19922;-93
2024/04/06 01:58:26;;;;;;;;;;;;;;;9.27;100.00;98537.91;5000035;28;19980;-93
2024/04/06 02:00:51;;;;;;;;;;;;;;;9.31;100.00;98529.16;4982160;28;20013;-94
2024/04/06 02:03:16;;;;;;;;;;;;;;;9.11;100.00;98530.31;4981805;28;19922;-92
2024/04/06 02:05:42;;;;;;;;;;;;;;;9.12;100.00;98526.78;4982303;28;19925;-93
2024/04/06 02:08:07;;;;;;;;;;;;;;;8.89;100.00;98529.59;4974399;28;19925;-92
2024/04/06 02:10:32;;;;;;;;;;;;;;;8.87;100.00;98531.31;5006782;28;19945;-93
2024/04/06 02:13:01;;;;;;;;;;;;;;;8.89;100.00;98529.59;5006753;28;19926;-94
2024/04/06 02:15:27;;;;;;;;;;;;;;;9.00;100.00;98519.28;5009002;28;19913;-94
2024/04/06 02:17:53;;;;;;;;;;;;;;;8.82;100.00;98518.75;4972337;28;19933;-92
2024/04/06 02:20:19;;;;;;;;;;;;;;;8.74;100.00;98524.69;4986232;28;19941;-93
2024/04/06 02:22:45;;;;;;;;;;;;;;;8.86;100.00;98524.22;4979886;28;19918;-93
2024/04/06 02:25:10;;;;;;;;;;;;;;;8.76;100.00;98524.72;4969801;28;19922;-95
2024/04/06 02:27:35;;;;;;;;;;;;;;;8.67;100.00;98521.75;5008714;28;19929;-94
2024/04/06 02:30:01;;;;;;;;;;;;;;;8.46;100.00;98514.88;5006398;28;19922;-96
2024/04/06 02:32:28;;;;;;;;;;;;;;;8.31;100.00;98506.34;4994155;28;19914;-94
2024/04/06 02:34:56;;;;;;;;;;;;;;;8.19;100.00;98509.50;4973958;28;19934;-92
2024/04/06 02:37:22;;;;;;;;;;;;;;;8.15;100.00;98504.94;4989514;28;19917;-92
2024/04/06 02:39:47;;;;;;;;;;;;;;;8.12;100.00;98503.91;4975582;28;19918;-92
2024/04/06 02:42:13;;;;;;;;;;;;;;;8.12;100.00;98503.91;4971040;28;20487;-94
2024/04/06 02:44:38;;;;;;;;;;;;;;;8.17;100.00;98508.53;5002975;28;19960;-94
2024/04/06 02:47:03;;;;;;;;;;;;;;;8.14;100.00;98512.84;4984153;28;19922;-92
2024/04/06 02:49:29;;;;;;;;;;;;;;;8.08;100.00;98516.19;4994955;28;20261;-93
2024/04/06 02:51:54;;;;;;;;;;;;;;;8.02;100.00;98509.75;4968053;28;19922;-94
2024/04/06 02:54:20;;;;;;;;;;;;;;;8.23;100.00;98497.22;4978784;28;19917;-93
2024/04/06 02:56:45;;;;;;;;;;;;;;;8.18;100.00;98505.03;4958451;28;20005;-94
2024/04/06 02:59:10;;;;;;;;;;;;;;;8.23;100.00;98495.44;4959750;28;19917;-93
2024/04/06 03:01:36;;;;;;;;;;;;;;;8.25;100.00;98498.19;4963380;28;19968;-92
2024/04/06 03:04:01;;;;;;;;;;;;;;;8.27;100.00;98501.78;4978084;28;19925;-93
2024/04/06 03:06:26;;;;;;;;;;;;;;;8.17;100.00;98494.34;4959626;28;20411;-94
2024/04/06 03:08:52;;;;;;;;;;;;;;;8.24;100.00;98491.06;4965296;28;19917;-93
2024/04/06 03:11:17;;;;;;;;;;;;;;;8.24;100.00;98493.72;4967953;28;19941;-92
2024/04/06 03:13:43;;;;;;;;;;;;;;;8.26;100.00;98492.00;4973551;28;19962;-90
2024/04/06 03:16:08;;;;;;;;;;;;;;;8.25;100.00;98486.66;4977056;28;19980;-93
2024/04/06 03:18:34;;;;;;;;;;;;;;;8.21;100.00;98493.63;4970863;28;19973;-93
2024/04/06 03:20:59;;;;;;;;;;;;;;;8.28;100.00;98492.97;4982301;28;19918;-93
2024/04/06 03:23:25;;;;;;;;;;;;;;;8.19;100.00;98500.59;4984982;28;19917;-93
2024/04/06 03:25:50;;;;;;;;;;;;;;;8.15;100.00;98504.03;4964539;28;19976;-94
2024/04/06 03:28:17;;;;;;;;;;;;;;;8.10;100.00;98508.28;4963127;28;20387;-94
2024/04/06 03:30:42;;;;;;;;;;;;;;;8.11;100.00;98508.34;4973827;28;19918;-93
2024/04/06 03:33:08;;;;;;;;;;;;;;;8.06;100.00;98506.38;4983858;28;19924;-93
2024/04/06 03:35:33;;;;;;;;;;;;;;;8.04;100.00;98508.94;4976282;28;19997;-93
2024/04/06 03:37:59;;;;;;;;;;;;;;;8.04;100.00;98513.38;4953767;28;20267;-93
2024/04/06 03:40:24;;;;;;;;;;;;;;;7.91;100.00;98512.94;4968225;28;20030;-92
2024/04/06 03:42:56;;;;;;;;;;;;;;;7.69;100.00;98520.97;4987088;28;19925;-91
2024/04/06 03:45:21;;;;;;;;;;;;;;;7.57;100.00;98515.19;4993451;28;19933;-92
2024/04/06 03:47:47;;;;;;;;;;;;;;;7.51;100.00;98507.00;4975987;28;20130;-94
2024/04/06 03:50:13;;;;;;;;;;;;;;;7.38;100.00;98511.88;4973522;28;19969;-92
2024/04/06 03:52:39;;;;;;;;;;;;;;;7.22;100.00;98509.44;4976451;28;20008;-93
2024/04/06 03:55:04;;;;;;;;;;;;;;;7.38;100.00;98517.19;4959379;28;20012;-94
2024/04/06 03:57:30;;;;;;;;;;;;;;;7.11;100.00;98517.00;4967677;28;19976;-94
2024/04/06 03:59:56;;;;;;;;;;;;;;;7.14;100.00;98519.78;4985012;28;19922;-94
2024/04/06 04:02:21;;;;;;;;;;;;;;;7.13;100.00;98520.59;4985883;28;19921;-92
2024/04/06 04:04:46;;;;;;;;;;;;;;;7.10;100.00;98516.97;4974786;28;19932;-93
2024/04/06 04:07:11;;;;;;;;;;;;;;;7.05;100.00;98507.91;4973716;28;19926;-92
2024/04/06 04:09:37;;;;;;;;;;;;;;;7.05;100.00;98508.81;4964372;28;20397;-91
2024/04/06 04:12:02;;;;;;;;;;;;;;;7.01;100.00;98516.59;4961477;28;19922;-92
2024/04/06 04:14:29;;;;;;;;;;;;;;;6.92;100.00;98518.03;4981867;28;20013;-93
2024/04/06 04:16:54;;;;;;;;;;;;;;;6.99;100.00;98518.25;4968983;28;19930;-93
2024/04/06 04:19:20;;;;;;;;;;;;;;;6.78;100.00;98523.63;4974410;28;20701;-94
2024/04/06 04:21:45;;;;;;;;;;;;;;;6.79;100.00;98525.41;4992675;28;20662;-91
2024/04/06 04:24:11;;;;;;;;;;;;;;;6.76;100.00;98535.94;4960209;28;20501;-91
2024/04/06 04:26:37;;;;;;;;;;;;;;;6.57;100.00;98531.59;4960794;28;20109;-94
2024/04/06 04:29:02;;;;;;;;;;;;;;;6.68;100.00;98536.50;4980100;28;20008;-91
2024/04/06 04:31:28;;;;;;;;;;;;;;;6.68;100.00;98543.53;4983507;28;19953;-93
2024/04/06 04:33:53;;;;;;;;;;;;;;;6.72;100.00;98542.84;4976993;28;20029;-94
2024/04/06 04:36:19;;;;;;;;;;;;;;;6.69;100.00;98548.91;4970334;28;20012;-93
2024/04/06 04:38:44;;;;;;;;;;;;;;;6.63;100.00;98551.31;4976115;28;19918;-92
2024/04/06 04:41:09;;;;;;;;;;;;;;;6.52;100.00;98551.72;4960057;28;20314;-92
2024/04/06 04:43:35;;;;;;;;;;;;;;;6.48;100.00;98547.13;4975325;28;19922;-92
2024/04/06 04:46:00;;;;;;;;;;;;;;;6.49;100.00;98548.94;4976243;28;19918;-92
2024/04/06 04:48:31;;;;;;;;;;;;;;;6.27;100.00;98542.69;4981098;28;19980;-92
2024/04/06 04:50:56;;;;;;;;;;;;;;;6.16;100.00;98549.28;4981628;28;20151;-92
2024/04/06 04:53:22;;;;;;;;;;;;;;;6.29;100.00;98546.34;4980415;28;19961;-94
2024/04/06 04:55:47;;;;;;;;;;;;;;;6.39;100.00;98547.63;4988804;28;19929;-94
2024/04/06 04:58:12;;;;;;;;;;;;;;;6.32;100.00;98550.84;4992851;28;19976;-92
2024/04/06 05:00:38;;;;;;;;;;;;;;;6.25;100.00;98555.00;4977066;28;19926;-92
2024/04/06 05:03:04;;;;;;;;;;;;;;;6.25;100.00;98560.28;4969033;28;19972;-92
2024/04/06 05:05:29;;;;;;;;;;;;;;;6.20;100.00;98551.25;4967156;28;19969;-93
2024/04/06 05:07:54;;;;;;;;;;;;;;;6.19;100.00;98549.44;4996619;28;19961;-93
2024/04/06 05:10:19;;;;;;;;;;;;;;;6.16;100.00;98565.19;5006906;28;19922;-93
2024/04/06 05:12:45;;;;;;;;;;;;;;;6.25;100.00;98562.94;4990402;28;19937;-94
2024/04/06 05:15:10;;;;;;;;;;;;;;;6.26;100.00;98567.38;4987667;28;19965;-93
2024/04/06 05:17:37;;;;;;;;;;;;;;;6.40;100.00;98566.25;4986073;28;19940;-93
2024/04/06 05:20:05;;;;;;;;;;;;;;;6.43;100.00;98574.31;4961429;28;20260;-92
2024/04/06 05:22:31;;;;;;;;;;;;;;;6.36;100.00;98574.88;4988479;28;19964;-92
2024/04/06 05:24:57;;;;;;;;;;;;;;;6.46;100.00;98575.28;4969373;28;19927;-93
2024/04/06 05:27:24;;;;;;;;;;;;;;;6.44;100.00;98577.88;4967184;28;19920;-93
2024/04/06 05:29:50;;;;;;;;;;;;;;;6.43;100.00;98576.97;4972305;28;19961;-93
2024/04/06 05:32:16;;;;;;;;;;;;;;;6.52;100.00;98586.19;4963534;28;19937;-92
2024/04/06 05:34:41;;;;;;;;;;;;;;;6.69;100.00;98591.31;4955144;28;19922;-93
2024/04/06 05:37:07;;;;;;;;;;;;;;;6.72;100.00;98585.25;4979042;28;19937;-93
2024/04/06 05:39:32;;;;;;;;;;;;;;;6.85;100.00;98586.66;4964036;28;19929;-93
2024/04/06 05:42:01;;;;;;;;;;;;;;;6.99;100.00;98581.91;4977471;28;19918;-93
2024/04/06 05:44:26;;;;;;;;;;;;;;;7.12;100.00;98592.19;4987002;28;19922;-91
2024/04/06 05:46:52;;;;;;;;;;;;;;;7.22;100.00;98593.47;4991166;28;19973;-92
2024/04/06 05:49:17;;;;;;;;;;;;;;;7.28;100.00;98599.94;4958866;28;19918;-92
2024/04/06 05:51:43;;;;;;;;;;;;;;;7.45;100.00;98596.19;4956405;28;19925;-93
2024/04/06 05:54:08;;;;;;;;;;;;;;;7.68;100.00;98599.72;4968593;28;20291;-92
2024/04/06 05:56:33;;;;;;;;;;;;;;;7.92;100.00;98601.50;4972528;28;20394;-93
2024/04/06 05:59:01;;;;;;;;;;;;;;;8.07;100.00;98596.75;4957795;28;19922;-94
2024/04/06 06:01:26;;;;;;;;;;;;;;;8.29;99.17;98595.78;4943104;28;19929;-93
2024/04/06 06:03:52;;;;;;;;;;;;;;;8.57;100.00;98586.13;4965273;28;19919;-93
2024/04/06 06:06:17;;;;;;;;;;;;;;;8.85;99.63;98583.56;4963419;28;19929;-94
2024/04/06 06:08:43;;;;;;;;;;;;;;;9.12;98.98;98590.66;4944205;28;19928;-93
2024/04/06 06:11:08;;;;;;;;;;;;;;;9.34;96.07;98577.19;4933662;28;20302;-91
2024/04/06 06:13:34;;;;;;;;;;;;;;;9.74;97.55;98583.72;4957367;28;20286;-92
2024/04/06 06:15:59;;;;;;;;;;;;;;;10.14;96.13;98577.78;4948879;28;19961;-94
2024/04/06 06:18:25;;;;;;;;;;;;;;;10.59;94.00;98579.97;4955242;28;19922;-92
2024/04/06 06:20:50;;;;;;;;;;;;;;;11.04;91.53;98574.88;4965550;28;19926;-94
2024/04/06 06:23:15;;;;;;;;;;;;;;;11.37;88.48;98575.66;4952924;28;19922;-93
2024/04/06 06:25:41;;;;;;;;;;;;;;;11.68;86.39;98582.59;4966376;28;19998;-91
2024/04/06 06:28:07;;;;;;;;;;;;;;;12.06;87.77;98573.66;4967037;28;20444;-92
2024/04/06 06:30:32;;;;;;;;;;;;;;;12.29;84.94;98568.78;4966409;28;19985;-91
2024/04/06 06:32:58;;;;;;;;;;;;;;;12.54;83.74;98572.81;4963058;28;19965;-94
2024/04/06 06:35:23;;;;;;;;;;;;;;;12.84;82.99;98560.88;4953746;28;19934;-94
2024/04/06 06:37:48;;;;;;;;;;;;;;;13.08;79.89;98555.03;4959577;28;19918;-94
2024/04/06 06:40:15;;;;;;;;;;;;;;;13.38;78.89;98556.44;4958149;28;19918;-94
2024/04/06 06:42:40;;;;;;;;;;;;;;;13.86;79.32;98556.22;4956117;28;19922;-92
2024/04/06 06:45:09;;;;;;;;;;;;;;;14.39;74.59;98547.91;4946409;29;20275;-93
2024/04/06 06:47:35;;;;;;;;;;;;;;;14.94;71.59;98537.75;4959612;28;19918;-93
2024/04/06 06:50:02;;;;;;;;;;;;;;;15.23;69.29;98531.69;4971068;28;19918;-94
2024/04/06 06:52:29;;;;;;;;;;;;;;;15.31;67.86;98536.25;4981412;28;19918;-94
2024/04/06 06:54:55;;;;;;;;;;;;;;;15.37;66.69;98533.59;4977000;28;19925;-92
2024/04/06 06:57:20;;;;;;;;;;;;;;;16.15;63.32;98535.88;4977649;28;20244;-93
2024/04/06 06:59:47;;;;;;;;;;;;;;;16.51;62.12;98542.25;4965035;28;19921;-94
2024/04/06 07:02:14;;;;;;;;;;;;;;;16.81;61.28;98547.72;4998771;28;19929;-93
2024/04/06 07:57:35;;;;;;;;;;;;;;;22.35;50.51;98572.34;4976603;28;20008;-92
2024/04/06 08:00:03;;;;;;;;;;;;;;;22.34;50.23;98566.97;4981749;28;19965;-95
2024/04/06 08:02:30;;;;;;;;;;;;;;;22.41;49.62;98568.59;4980230;28;19925;-95
2024/04/06 08:04:57;;;;;;;;;;;;;;;23.46;47.90;98568.03;4971466;28;19918;-94
2024/04/06 08:07:23;;;;;;;;;;;;;;;23.58;46.77;98559.56;4969271;28;19937;-95
2024/04/06 08:09:49;;;;;;;;;;;;;;;24.03;44.71;98562.00;4987287;28;19926;-94
2024/04/06 08:12:15;;;;;;;;;;;;;;;24.71;44.19;98552.78;4967163;28;19929;-95
2024/04/06 08:14:41;;;;;;;;;;;;;;;25.34;40.50;98546.22;4982101;28;19922;-95
2024/04/06 08:17:11;;;;;;;;;;;;;;;25.21;40.43;98548.50;4986380;28;19928;-95
2024/04/06 08:19:36;;;;;;;;;;;;;;;26.21;38.59;98547.78;4982211;28;19944;-96
2024/04/06 08:22:03;;;;;;;;;;;;;;;26.68;36.73;98547.84;4994816;28;19922;-94
2024/04/06 08:24:29;;;;;;;;;;;;;;;26.40;35.62;98551.63;4991193;28;19924;-94
2024/04/06 08:26:55;;;;;;;;;;;;;;;26.58;34.76;98548.19;4991629;28;20363;-94
2024/04/06 08:29:21;;;;;;;;;;;;;;;24.80;35.83;98557.97;5000622;28;19942;-95
2024/04/06 08:31:48;;;;;;;;;;;;;;;25.54;35.93;98548.31;4979677;28;19945;-94
2024/04/06 08:34:13;;;;;;;;;;;;;;;26.23;35.89;98546.78;4998884;28;20330;-93
2024/04/06 08:36:38;;;;;;;;;;;;;;;25.72;35.68;98538.56;4981974;28;19925;-94
2024/04/06 08:39:04;;;;;;;;;;;;;;;26.15;34.54;98540.69;4993265;28;19918;-93
2024/04/06 08:41:30;;;;;;;;;;;;;;;25.58;35.13;98539.03;4969258;28;19922;-94
2024/04/06 08:43:55;;;;;;;;;;;;;;;26.03;35.23;98532.94;4986897;28;20271;-95
2024/04/06 08:46:21;;;;;;;;;;;;;;;26.73;34.15;98524.81;5000834;28;19918;-94
2024/04/06 08:48:48;;;;;;;;;;;;;;;26.58;33.28;98518.09;4980217;28;19921;-96
2024/04/06 08:51:15;;;;;;;;;;;;;;;26.23;34.61;98524.91;5005223;28;19918;-96
2024/04/06 08:53:43;;;;;;;;;;;;;;;26.10;34.29;98521.72;4985172;28;19947;-96
2024/04/06 08:56:09;;;;;;;;;;;;;;;26.62;33.79;98529.81;5004428;28;19977;-96
2024/04/06 08:58:34;;;;;;;;;;;;;;;26.20;34.28;98518.63;4971908;28;19918;-95
2024/04/06 09:01:03;;;;;;;;;;;;;;;26.55;32.64;98528.28;5007743;28;19917;-93
2024/04/06 09:03:31;;;;;;;;;;;;;;;26.26;33.79;98521.16;5002780;28;19914;-94
2024/04/06 09:05:58;;;;;;;;;;;;;;;26.67;34.26;98518.69;5002269;28;20316;-95
2024/04/06 09:08:25;;;;;;;;;;;;;;;27.78;32.06;98516.84;4983639;28;20013;-94
2024/04/06 09:10:54;;;;;;;;;;;;;;;27.11;32.38;98515.09;4973025;28;19922;-94
2024/04/06 09:24:12;;;;;;;;;;;;;;;27.62;32.25;98502.91;5005266;28;19929;-95
2024/04/06 09:26:37;;;;;;;;;;;;;;;28.40;30.63;98500.41;4976963;28;19954;-92
2024/04/06 09:29:02;;;;;;;;;;;;;;;28.97;30.56;98496.75;4996699;28;19961;-94
2024/04/06 09:31:31;;;;;;;;;;;;;;;28.79;29.71;98490.25;4992149;28;19918;-93
2024/04/06 09:33:58;;;;;;;;;;;;;;;29.17;27.75;98484.75;4979451;28;20005;-95
2024/04/06 09:36:23;;;;;;;;;;;;;;;29.57;27.67;98478.16;4951265;28;19925;-93
2024/04/06 09:42:18;;;;;;;;;;;;;;;28.21;30.64;98475.63;5002581;28;19929;-92
2024/04/06 09:44:45;;;;;;;;;;;;;;;29.61;27.78;98470.66;4988395;28;19918;-93
2024/04/06 09:47:10;;;;;;;;;;;;;;;28.79;29.33;98478.38;4995150;28;19992;-93
2024/04/06 09:49:36;;;;;;;;;;;;;;;29.00;27.79;98479.22;4987374;28;19977;-92
2024/04/06 09:52:02;;;;;;;;;;;;;;;27.21;31.06;98469.03;4986775;28;19944;-93
2024/04/06 09:54:27;;;;;;;;;;;;;;;26.75;29.69;98475.50;5009363;28;19915;-95
2024/04/06 09:57:00;;;;;;;;;;;;;;;28.72;27.93;98474.16;4997360;28;19910;-94
2024/04/06 09:59:28;;;;;;;;;;;;;;;26.90;29.57;98463.03;4999759;28;19921;-94
2024/04/06 10:01:56;;;;;;;;;;;;;;;27.23;27.94;98464.41;4984439;28;19920;-93
2024/04/06 10:04:32;;;;;;;;;;;;;;;28.28;27.63;98466.16;4974639;28;19921;-94
2024/04/06 10:10:45;;;;;;;;;;;;;;;30.67;24.68;98450.19;5003549;28;19925;-94
2024/04/06 10:16:39;;;;;;;;;;;;;;;29.39;23.80;98455.22;5003937;28;19925;-93
2024/04/06 10:19:09;;;;;;;;;;;;;;;26.92;26.68;98455.63;5004213;28;19917;-93
2024/04/06 10:21:36;;;;;;;;;;;;;;;28.24;26.93;98451.69;5002956;28;19917;-94
2024/04/06 10:24:09;;;;;;;;;;;;;;;27.88;25.24;98451.53;5003977;28;19965;-93
2024/04/06 10:26:35;;;;;;;;;;;;;;;28.83;23.47;98450.69;5000857;28;19949;-92
2024/04/06 10:29:02;;;;;;;;;;;;;;;29.25;20.82;98440.41;5026825;28;19917;-93
2024/04/06 10:31:27;;;;;;;;;;;;;;;28.70;21.21;98446.78;4993270;28;19918;-94
2024/04/06 10:33:56;;;;;;;;;;;;;;;31.09;18.95;98442.28;4988447;28;19924;-94
2024/04/06 10:36:22;;;;;;;;;;;;;;;31.41;18.94;98440.41;5007382;28;19921;-94
2024/04/06 10:38:49;;;;;;;;;;;;;;;31.47;18.99;98439.16;4989977;28;19941;-93
2024/04/06 10:41:15;;;;;;;;;;;;;;;32.05;18.07;98435.56;4981104;28;19925;-92
2024/04/06 10:43:42;;;;;;;;;;;;;;;32.43;16.65;98433.16;5026126;28;19972;-94
2024/04/06 10:46:09;;;;;;;;;;;;;;;31.44;17.11;98440.22;5013994;28;19925;-96
2024/04/06 10:48:38;;;;;;;;;;;;;;;29.55;19.08;98424.22;5008221;28;19918;-94
2024/04/06 10:51:05;;;;;;;;;;;;;;;31.47;17.88;98419.84;4993751;28;19918;-95
2024/04/06 10:53:35;;;;;;;;;;;;;;;31.37;17.45;98425.91;5011168;28;19924;-94
2024/04/06 10:56:04;;;;;;;;;;;;;;;31.55;16.53;98420.28;4988569;28;19972;-96
2024/04/06 10:58:30;;;;;;;;;;;;;;;30.18;18.41;98430.00;4988063;28;19917;-96
2024/04/06 11:00:55;;;;;;;;;;;;;;;30.77;17.59;98417.50;4985352;28;19928;-96
2024/04/06 11:03:21;;;;;;;;;;;;;;;30.97;16.88;98418.22;4989933;28;20016;-95
2024/04/06 11:06:05;;;;;;;;;;;;;;;31.61;16.46;98417.13;5021442;28;19917;-94
2024/04/06 11:08:40;;;;;;;;;;;;;;;32.54;16.40;98410.41;5026822;28;19913;-95
2024/04/06 11:11:28;;;;;;;;;;;;;;;32.41;15.76;98411.19;5003582;28;19928;-95
2024/04/06 11:13:59;;;;;;;;;;;;;;;32.21;16.46;98407.91;5006942;28;19926;-96
2024/04/06 11:16:27;;;;;;;;;;;;;;;33.47;15.45;98398.59;5007342;28;19921;-96
2024/04/06 11:18:56;;;;;;;;;;;;;;;31.34;17.31;98411.44;4986614;28;19928;-96
2024/04/06 11:21:21;;;;;;;;;;;;;;;30.19;18.02;98404.28;4999423;28;19922;-93
2024/04/06 11:23:47;;;;;;;;;;;;;;;31.42;16.85;98396.19;5004577;28;19918;-96
2024/04/06 11:26:12;;;;;;;;;;;;;;;30.85;18.65;98401.41;4987001;28;19922;-95
2024/04/06 11:28:38;;;;;;;;;;;;;;;32.30;17.68;98399.91;4971004;28;19924;-95
2024/04/06 11:31:04;;;;;;;;;;;;;;;31.45;17.50;98408.03;5000497;28;20369;-95
2024/04/06 11:33:29;;;;;;;;;;;;;;;32.69;16.39;98399.22;4999615;28;19934;-95
2024/04/06 11:35:56;;;;;;;;;;;;;;;31.11;17.40;98404.50;4977512;28;19913;-94
2024/04/06 11:38:21;;;;;;;;;;;;;;;31.59;17.44;98417.22;4995188;28;19921;-94
2024/04/06 11:40:47;;;;;;;;;;;;;;;32.01;17.26;98398.16;4981481;28;19922;-93
2024/04/06 11:43:14;;;;;;;;;;;;;;;32.73;16.34;98388.84;5002530;28;19917;-93
2024/04/06 11:45:39;;;;;;;;;;;;;;;33.10;16.23;98386.38;4996431;28;19971;-92
2024/04/06 11:48:05;;;;;;;;;;;;;;;33.66;16.19;98381.59;5012292;28;19968;-92
2024/04/06 11:50:30;;;;;;;;;;;;;;;33.88;16.01;98376.31;4982380;28;19917;-92
2024/04/06 11:52:55;;;;;;;;;;;;;;;33.73;15.78;98374.66;4961365;28;19922;-92
2024/04/06 11:55:22;;;;;;;;;;;;;;;32.62;17.06;98375.72;4996788;28;19917;-93
2024/04/06 11:57:47;;;;;;;;;;;;;;;34.29;15.62;98378.00;4977741;28;19953;-92
2024/04/06 12:00:13;;;;;;;;;;;;;;;32.99;14.67;98372.41;4983686;28;19975;-92
2024/04/06 12:02:39;;;;;;;;;;;;;;;35.12;14.45;98367.22;4994472;28;19929;-92
2024/04/06 12:05:04;;;;;;;;;;;;;;;33.33;17.85;98366.34;5014620;28;19918;-93
2024/04/06 12:07:30;;;;;;;;;;;;;;;35.89;14.31;98353.75;4980592;28;20829;-91
2024/04/06 12:09:57;;;;;;;;;;;;;;;36.95;13.42;98350.66;4998279;28;19964;-91
2024/04/06 12:12:23;;;;;;;;;;;;;;;34.81;14.03;98356.63;5008081;28;19979;-93
2024/04/06 12:14:51;;;;;;;;;;;;;;;34.71;14.46;98354.56;4979404;28;20704;-91
2024/04/06 12:17:26;;;;;;;;;;;;;;;34.61;13.13;98356.25;4977549;28;19917;-91
2024/04/06 12:19:55;;;;;;;;;;;;;;;33.91;13.75;98351.19;4981599;28;19973;-92
2024/04/06 12:22:20;;;;;;;;;;;;;;;33.38;13.66;98352.19;4973239;28;19967;-92
2024/04/06 12:24:48;;;;;;;;;;;;;;;34.55;13.39;98353.97;4996318;28;20355;-91
2024/04/06 12:27:17;;;;;;;;;;;;;;;35.02;13.27;98348.59;4987360;28;20295;-92
2024/04/06 12:29:43;;;;;;;;;;;;;;;34.77;13.86;98349.56;4992231;28;20089;-94
2024/04/06 12:32:10;;;;;;;;;;;;;;;35.03;13.68;98344.84;4991994;28;19921;-95
2024/04/06 12:34:37;;;;;;;;;;;;;;;35.67;13.93;98350.91;4995995;28;19924;-94
2024/04/06 12:37:06;;;;;;;;;;;;;;;33.20;15.82;98340.53;4980140;28;20048;-94
2024/04/06 12:39:32;;;;;;;;;;;;;;;33.49;15.74;98340.41;5001811;28;19909;-94
2024/04/06 12:42:00;;;;;;;;;;;;;;;31.92;16.32;98344.41;5008155;28;19926;-95
2024/04/06 12:44:30;;;;;;;;;;;;;;;35.32;12.53;98329.59;4990337;28;19918;-94
2024/04/06 12:46:55;;;;;;;;;;;;;;;35.43;12.71;98331.50;4982503;28;19917;-95
2024/04/06 12:49:22;;;;;;;;;;;;;;;30.76;16.10;98321.16;4998197;28;20373;-95
2024/04/06 12:51:51;;;;;;;;;;;;;;;32.28;15.29;98327.31;5003871;28;20433;-93
2024/04/06 12:54:21;;;;;;;;;;;;;;;31.59;15.26;98328.09;4983861;28;19925;-93
2024/04/06 12:59:37;;;;;;;;;;;;;;;33.93;13.76;98321.50;5006809;28;20352;-93
2024/04/06 13:02:06;;;;;;;;;;;;;;;36.15;12.12;98309.13;4973286;28;20271;-93
2024/04/06 13:04:32;;;;;;;;;;;;;;;36.86;11.74;98293.00;4963541;28;19939;-94
2024/04/06 13:06:58;;;;;;;;;;;;;;;38.76;10.61;98299.28;4997185;28;20380;-93
2024/04/06 13:09:23;;;;;;;;;;;;;;;39.69;10.35;98293.22;4994483;28;19914;-93
2024/04/06 13:11:51;;;;;;;;;;;;;;;38.59;10.53;98283.22;4992728;28;20435;-93
2024/04/06 13:14:18;;;;;;;;;;;;;;;38.16;10.69;98276.00;5000052;28;19918;-93
2024/04/06 13:16:44;;;;;;;;;;;;;;;36.86;11.69;98266.06;5003468;28;20632;-94
2024/04/06 13:19:10;;;;;;;;;;;;;;;36.92;11.51;98273.03;5004682;28;19925;-93
2024/04/06 13:21:41;;;;;;;;;;;;;;;33.23;14.27;98278.59;5004810;28;19922;-93
2024/04/06 13:24:13;;;;;;;;;;;;;;;35.83;12.95;98270.94;4996038;28;19925;-93
2024/04/06 13:26:41;;;;;;;;;;;;;;;35.08;12.71;98263.06;4998726;28;20784;-94
2024/04/06 13:29:07;;;;;;;;;;;;;;;36.66;11.89;98259.44;5004258;28;19922;-93
2024/04/06 13:31:32;;;;;;;;;;;;;;;38.07;11.12;98262.91;4978125;28;19920;-94
2024/04/06 13:33:58;;;;;;;;;;;;;;;37.43;11.14;98250.94;4994637;28;19918;-94
2024/04/06 13:36:23;;;;;;;;;;;;;;;36.53;11.21;98250.38;5015026;28;20366;-95
2024/04/06 13:38:49;;;;;;;;;;;;;;;38.07;10.27;98247.06;4986904;28;19927;-94
2024/04/06 13:41:15;;;;;;;;;;;;;;;38.18;10.28;98248.88;4984570;28;19998;-92
2024/04/06 13:43:42;;;;;;;;;;;;;;;38.56;10.13;98250.94;4994776;28;19944;-93
2024/04/06 13:46:07;;;;;;;;;;;;;;;37.25;11.01;98252.53;4999829;28;20434;-92
2024/04/06 13:48:33;;;;;;;;;;;;;;;36.93;10.84;98252.53;4994310;28;19977;-93
2024/04/06 13:50:58;;;;;;;;;;;;;;;37.05;10.98;98250.63;4986710;28;19977;-93
2024/04/06 13:53:23;;;;;;;;;;;;;;;38.12;10.14;98241.97;4969727;28;19932;-92
2024/04/06 13:55:50;;;;;;;;;;;;;;;37.82;9.98;98234.47;4999665;28;19923;-93
2024/04/06 13:58:16;;;;;;;;;;;;;;;34.32;12.62;98233.75;5014340;28;20012;-92
2024/04/06 14:00:42;;;;;;;;;;;;;;;36.02;11.94;98228.69;5003120;28;19917;-92